Terminal Aerodrome Forecast
Issued by NWS St Louis, MO

Home | Current Version | Previous Version | Text Only | Print | Product List | Glossary On
Versions: 1 2 3 4 5 6 7 8 9 10 11 12 13 14 15 16 17
000
FTUS43 KLSX 211136
TAFCOU
TAF
KCOU 211136Z 2112/2212 08009KT P6SM OVC150
     FM211600 10012G20KT P6SM BKN150
     FM220200 08010KT P6SM OVC050
     FM220800 08010G16KT 6SM -SHRA OVC035
     FM221000 07010KT 6SM -SHRA OVC025=

USA.gov is the U.S. government's official web portal to all federal, state and local government web resources and services.